Nearby METAR Reports

 

K1V6 - Canon City, Colorado, USA
Distance from station: NE 34mi, 55km
Updated: 04/22/2021 12:55pm MDT
Partly cloudy
Partly cloudy
 Wind from WNW
Wind: WNW 24 mph , 39 km/h, Gust: 31 mph , 50 km/h
Temperature: 64°F , 18°C
Dew Point: 25°F , -4°C
Humidity: 22%
Barometer: 29.69 inHg , 1005.4 hPa
Clouds: Partly cloudy
Visibility: 10 miles , 16 km
Cloud details: Partly cloudy 10000 ft
Partly cloudy 12000 ft
2021/04/22 18:55 K1V6 221855Z AUTO 29021G27KT 10SM SCT100 SCT120 18/M04 A2969 RMK AO2
K04V - Saguache Muni, Colorado, USA
Distance from station: W 35mi, 56km
Updated: 04/22/2021 12:55pm MDT
Partly cloudy
Partly cloudy
 Wind from W
Wind: W 31 mph , 50 km/h, Gust: 43 mph , 69 km/h
Temperature: 48°F , 9°C
Wind Chill: 39°F , 4°C
Dew Point: 18°F , -8°C
Humidity: 29%
Barometer: 29.82 inHg , 1009.8 hPa
Clouds: Partly cloudy
Visibility: 10 miles , 16 km
Cloud details: Partly cloudy 6500 ft
Partly cloudy 8000 ft
2021/04/22 18:55 K04V 221855Z AUTO 28027G37KT 10SM SCT065 SCT080 09/M08 A2982 RMK AO2
 
KANK - Salida, Colorado, USA
Distance from station: NW 43mi, 69km
Updated: 04/22/2021 12:55pm MDT
Partly cloudy
Partly cloudy
 Wind from NW
Wind: NW 17 mph , 28 km/h, Gust: 41 mph , 67 km/h
Temperature: 54°F , 12°C
Dew Point: 12°F , -11°C
Humidity: 19%
Barometer: 29.85 inHg , 1010.8 hPa
Clouds: Partly cloudy
Visibility: 10 miles , 16 km
Cloud details: Partly cloudy 9000 ft
Partly cloudy 12000 ft
2021/04/22 18:55 KANK 221855Z AUTO 31015G36KT 10SM SCT090 SCT120 12/M11 A2985 RMK AO1 T01211107
KVTP - La Veta Pass, Colorado, USA
Distance from station: SSE 44mi, 71km
Updated: 04/22/2021 12:55pm MDT
Overcast
Overcast
 Wind from W
Wind: W 12 mph , 19 km/h, Gust: 23 mph , 37 km/h
Temperature: 36°F , 2°C
Wind Chill: 28°F , -2°C
Dew Point: 12°F , -11°C
Humidity: 38%
Barometer: 29.85 inHg , 1010.8 hPa
Clouds: Overcast
Visibility: 10 miles , 16 km
Cloud details: Partly cloudy 5500 ft
Mostly cloudy 6500 ft
Overcast 8000 ft
2021/04/22 18:55 KVTP 221855Z AUTO 26010G20KT 220V300 10SM SCT055 BKN065 OVC080 02/M11 A2985 RMK AO2
 
KALS - Alamosa, Colorado, USA
Distance from station: SSW 48mi, 77km
Updated: 04/22/2021 12:52pm MDT
Few Clouds
Few Clouds
 Wind from WSW
Wind: WSW 16 mph , 26 km/h, Gust: 28 mph , 44 km/h
Temperature: 55°F , 13°C
Dew Point: 14°F , -10°C
Humidity: 19%
Barometer: 29.82 inHg , 1009.8 hPa
Clouds: Few Clouds
Visibility: 10 miles , 16 km
Cloud details: Few Clouds 9000 ft
2021/04/22 18:52 KALS 221852Z AUTO 25014G24KT 10SM FEW090 13/M10 A2982 RMK AO2 PK WND 27031/1823 SLP050 T01281100